Archival Weather

Fukuoka

Fukuoka, Japan (RJFF)

Report from: Tuesday, August 16, 2022 6:45 PM JST
Current time: Sunday, November 27, 2022 6:53 PM JST

Current weather
Weather history
Weather forecast

Present weatherLight rain showers
Temperature27.0°C (80.6°F)
Heat index30.6°C (87.0°F)
Dew point25.0°C (77.0°F)
Winds 10 kts (5.1 m/s, 11.5 mph) Southeast (140°)
Visibility6.2 mi. (10 km)
Clouds Few clouds 100 ft. (30 m)
Scattered clouds 4,000 ft. (1,219 m)
Ceiling: Broken clouds 4,500 ft. (1,372 m)
Altimeter29.71 in.Hg (1006 mB)
Relative humidity89 %
Density altitude2,051 ft. (625 m)
Remarks Special weather observation
Flight conditions Visual Meteorological Conditions
Raw dataSPJP31 KWBC 160957 SPECI RJFF 160945Z 14010KT 9999 -SHRA FEW001 SCT040 BKN045 27/25 Q1006 RMK 1ST001 3CU040 5CU045 A2973
An error has occurred. This application may no longer respond until reloaded. Reload 🗙